sensor_id;sensor_type;location;lat;lon;timestamp;pressure;altitude;pressure_sealevel;temperature;humidity
26531;BME280;14201;43.188;24.160;2023-04-25T00:02:01;98785.16;;;13.09;100.00
26531;BME280;14201;43.188;24.160;2023-04-25T00:04:27;98782.53;;;13.10;100.00
26531;BME280;14201;43.188;24.160;2023-04-25T00:06:55;98775.66;;;13.14;100.00
26531;BME280;14201;43.188;24.160;2023-04-25T00:09:21;98779.19;;;13.17;100.00
26531;BME280;14201;43.188;24.160;2023-04-25T00:11:46;98791.09;;;13.00;100.00
26531;BME280;14201;43.188;24.160;2023-04-25T00:14:11;98783.59;;;13.20;100.00
26531;BME280;14201;43.188;24.160;2023-04-25T00:16:37;98783.97;;;13.38;100.00
26531;BME280;14201;43.188;24.160;2023-04-25T00:19:02;98780.34;;;13.30;100.00
26531;BME280;14201;43.188;24.160;2023-04-25T00:21:28;98785.84;;;13.46;100.00
26531;BME280;14201;43.188;24.160;2023-04-25T00:23:54;98788.69;;;13.11;100.00
26531;BME280;14201;43.188;24.160;2023-04-25T00:26:19;98794.03;;;13.17;100.00
26531;BME280;14201;43.188;24.160;2023-04-25T00:28:46;98783.66;;;13.23;100.00
26531;BME280;14201;43.188;24.160;2023-04-25T00:31:11;98783.69;;;13.25;100.00
26531;BME280;14201;43.188;24.160;2023-04-25T00:33:37;98783.75;;;13.29;100.00
26531;BME280;14201;43.188;24.160;2023-04-25T00:36:02;98775.28;;;13.41;100.00
26531;BME280;14201;43.188;24.160;2023-04-25T00:38:28;98775.38;;;13.47;100.00
26531;BME280;14201;43.188;24.160;2023-04-25T00:40:53;98771.84;;;13.45;100.00
26531;BME280;14201;43.188;24.160;2023-04-25T00:43:21;98774.56;;;13.50;100.00
26531;BME280;14201;43.188;24.160;2023-04-25T00:45:46;98768.38;;;13.45;100.00
26531;BME280;14201;43.188;24.160;2023-04-25T00:48:13;98764.06;;;13.48;100.00
26531;BME280;14201;43.188;24.160;2023-04-25T00:50:39;98759.81;;;13.55;100.00
26531;BME280;14201;43.188;24.160;2023-04-25T00:53:05;98754.44;;;13.46;100.00
26531;BME280;14201;43.188;24.160;2023-04-25T00:55:31;98747.66;;;13.58;100.00
26531;BME280;14201;43.188;24.160;2023-04-25T00:57:57;98745.16;;;13.66;100.00
26531;BME280;14201;43.188;24.160;2023-04-25T01:00:23;98742.50;;;13.63;100.00
26531;BME280;14201;43.188;24.160;2023-04-25T01:02:48;98727.47;;;13.50;100.00
26531;BME280;14201;43.188;24.160;2023-04-25T01:05:14;98728.16;;;13.39;100.00
26531;BME280;14201;43.188;24.160;2023-04-25T01:07:40;98721.19;;;13.38;100.00
26531;BME280;14201;43.188;24.160;2023-04-25T01:10:06;98714.97;;;13.30;100.00
26531;BME280;14201;43.188;24.160;2023-04-25T01:12:31;98716.63;;;13.28;100.00
26531;BME280;14201;43.188;24.160;2023-04-25T01:14:57;98717.03;;;12.99;100.00
26531;BME280;14201;43.188;24.160;2023-04-25T01:17:23;98708.63;;;13.19;100.00
26531;BME280;14201;43.188;24.160;2023-04-25T01:19:49;98707.13;;;13.30;100.00
26531;BME280;14201;43.188;24.160;2023-04-25T01:22:14;98707.63;;;13.11;100.00
26531;BME280;14201;43.188;24.160;2023-04-25T01:24:40;98706.59;;;13.03;100.00
26531;BME280;14201;43.188;24.160;2023-04-25T01:27:05;98705.78;;;13.05;100.00
26531;BME280;14201;43.188;24.160;2023-04-25T01:29:31;98705.94;;;13.13;100.00
26531;BME280;14201;43.188;24.160;2023-04-25T01:31:57;98698.75;;;13.03;100.00
26531;BME280;14201;43.188;24.160;2023-04-25T01:34:23;98698.19;;;13.19;100.00
26531;BME280;14201;43.188;24.160;2023-04-25T01:36:49;98696.72;;;13.35;100.00
26531;BME280;14201;43.188;24.160;2023-04-25T01:39:15;98702.81;;;13.35;100.00
26531;BME280;14201;43.188;24.160;2023-04-25T01:41:41;98693.41;;;13.47;100.00
26531;BME280;14201;43.188;24.160;2023-04-25T01:44:06;98697.13;;;13.63;99.29
26531;BME280;14201;43.188;24.160;2023-04-25T01:46:32;98685.03;;;13.69;98.47
26531;BME280;14201;43.188;24.160;2023-04-25T01:48:58;98682.41;;;13.69;97.28
26531;BME280;14201;43.188;24.160;2023-04-25T01:51:23;98679.97;;;13.82;97.47
26531;BME280;14201;43.188;24.160;2023-04-25T01:53:49;98679.06;;;13.79;96.42
26531;BME280;14201;43.188;24.160;2023-04-25T01:56:14;98678.97;;;13.73;96.69
26531;BME280;14201;43.188;24.160;2023-04-25T01:58:40;98670.34;;;13.82;96.95
26531;BME280;14201;43.188;24.160;2023-04-25T02:01:06;98670.13;;;13.64;97.04
26531;BME280;14201;43.188;24.160;2023-04-25T02:03:31;98660.38;;;13.55;97.05
26531;BME280;14201;43.188;24.160;2023-04-25T02:05:57;98660.31;;;13.49;98.97
26531;BME280;14201;43.188;24.160;2023-04-25T02:08:22;98652.44;;;13.46;100.00
26531;BME280;14201;43.188;24.160;2023-04-25T02:10:48;98655.16;;;13.55;100.00
26531;BME280;14201;43.188;24.160;2023-04-25T02:13:13;98650.63;;;13.42;100.00
26531;BME280;14201;43.188;24.160;2023-04-25T02:15:38;98652.97;;;13.26;100.00
26531;BME280;14201;43.188;24.160;2023-04-25T02:18:04;98654.53;;;13.15;100.00
26531;BME280;14201;43.188;24.160;2023-04-25T02:20:32;98641.50;;;13.16;100.00
26531;BME280;14201;43.188;24.160;2023-04-25T02:22:57;98656.38;;;13.20;100.00
26531;BME280;14201;43.188;24.160;2023-04-25T02:25:23;98647.50;;;13.12;100.00
26531;BME280;14201;43.188;24.160;2023-04-25T02:27:48;98652.63;;;13.03;100.00
26531;BME280;14201;43.188;24.160;2023-04-25T02:30:14;98644.78;;;13.03;100.00
26531;BME280;14201;43.188;24.160;2023-04-25T02:32:40;98644.66;;;12.95;100.00
26531;BME280;14201;43.188;24.160;2023-04-25T02:35:06;98642.94;;;12.97;100.00
26531;BME280;14201;43.188;24.160;2023-04-25T02:37:32;98641.19;;;12.98;100.00
26531;BME280;14201;43.188;24.160;2023-04-25T02:39:58;98644.84;;;13.08;100.00
26531;BME280;14201;43.188;24.160;2023-04-25T02:42:23;98642.22;;;13.08;100.00
26531;BME280;14201;43.188;24.160;2023-04-25T02:44:49;98649.31;;;13.15;100.00
26531;BME280;14201;43.188;24.160;2023-04-25T02:47:14;98651.09;;;13.17;100.00
26531;BME280;14201;43.188;24.160;2023-04-25T02:49:39;98648.56;;;13.24;100.00
26531;BME280;14201;43.188;24.160;2023-04-25T02:52:05;98653.88;;;13.28;100.00
26531;BME280;14201;43.188;24.160;2023-04-25T02:54:31;98645.38;;;13.40;100.00
26531;BME280;14201;43.188;24.160;2023-04-25T02:56:56;98646.38;;;13.50;100.00
26531;BME280;14201;43.188;24.160;2023-04-25T02:59:22;98650.03;;;13.61;99.28
26531;BME280;14201;43.188;24.160;2023-04-25T03:01:47;98646.69;;;13.71;97.43
26531;BME280;14201;43.188;24.160;2023-04-25T03:04:12;98651.19;;;13.83;96.24
26531;BME280;14201;43.188;24.160;2023-04-25T03:06:38;98653.06;;;13.93;95.40
26531;BME280;14201;43.188;24.160;2023-04-25T03:09:03;98650.31;;;13.83;95.63
26531;BME280;14201;43.188;24.160;2023-04-25T03:11:29;98650.25;;;13.79;96.53
26531;BME280;14201;43.188;24.160;2023-04-25T03:13:54;98646.78;;;13.79;96.66
26531;BME280;14201;43.188;24.160;2023-04-25T03:16:19;98649.31;;;13.74;96.98
26531;BME280;14201;43.188;24.160;2023-04-25T03:18:45;98648.41;;;13.72;95.08
26531;BME280;14201;43.188;24.160;2023-04-25T03:21:11;98642.16;;;13.59;96.42
26531;BME280;14201;43.188;24.160;2023-04-25T03:23:36;98648.19;;;13.54;96.81
26531;BME280;14201;43.188;24.160;2023-04-25T03:26:02;98640.72;;;13.24;97.63
26531;BME280;14201;43.188;24.160;2023-04-25T03:28:27;98640.91;;;12.81;99.04
26531;BME280;14201;43.188;24.160;2023-04-25T03:30:53;98639.84;;;12.68;100.00
26531;BME280;14201;43.188;24.160;2023-04-25T03:33:19;98631.06;;;12.65;100.00
26531;BME280;14201;43.188;24.160;2023-04-25T03:35:44;98627.06;;;12.35;100.00
26531;BME280;14201;43.188;24.160;2023-04-25T03:38:10;98634.78;;;12.30;100.00
26531;BME280;14201;43.188;24.160;2023-04-25T03:40:35;98633.03;;;12.29;100.00
26531;BME280;14201;43.188;24.160;2023-04-25T03:43:00;98628.44;;;12.16;100.00
26531;BME280;14201;43.188;24.160;2023-04-25T03:45:26;98628.19;;;12.05;100.00
26531;BME280;14201;43.188;24.160;2023-04-25T03:47:51;98626.56;;;12.10;100.00
26531;BME280;14201;43.188;24.160;2023-04-25T03:50:16;98630.94;;;12.11;100.00
26531;BME280;14201;43.188;24.160;2023-04-25T03:52:42;98630.94;;;12.11;100.00
26531;BME280;14201;43.188;24.160;2023-04-25T03:55:08;98630.66;;;11.97;100.00
26531;BME280;14201;43.188;24.160;2023-04-25T03:57:33;98634.13;;;11.96;100.00
26531;BME280;14201;43.188;24.160;2023-04-25T03:59:59;98635.00;;;11.97;100.00
26531;BME280;14201;43.188;24.160;2023-04-25T04:02:24;98641.16;;;12.00;99.62
26531;BME280;14201;43.188;24.160;2023-04-25T04:04:50;98647.41;;;12.09;97.56
26531;BME280;14201;43.188;24.160;2023-04-25T04:07:15;98652.06;;;12.25;96.75
26531;BME280;14201;43.188;24.160;2023-04-25T04:09:41;98651.31;;;12.31;96.88
26531;BME280;14201;43.188;24.160;2023-04-25T04:12:06;98647.78;;;12.29;98.15
26531;BME280;14201;43.188;24.160;2023-04-25T04:14:32;98646.16;;;12.34;96.94
26531;BME280;14201;43.188;24.160;2023-04-25T04:16:57;98648.06;;;12.43;96.41
26531;BME280;14201;43.188;24.160;2023-04-25T04:19:22;98649.88;;;12.45;96.46
26531;BME280;14201;43.188;24.160;2023-04-25T04:21:48;98658.72;;;12.53;95.63
26531;BME280;14201;43.188;24.160;2023-04-25T04:24:13;98655.41;;;12.64;95.19
26531;BME280;14201;43.188;24.160;2023-04-25T04:26:40;98657.69;;;12.94;92.52
26531;BME280;14201;43.188;24.160;2023-04-25T04:29:05;98662.28;;;13.09;92.44
26531;BME280;14201;43.188;24.160;2023-04-25T04:31:32;98661.88;;;13.37;93.32
26531;BME280;14201;43.188;24.160;2023-04-25T04:33:57;98662.22;;;13.59;90.25
26531;BME280;14201;43.188;24.160;2023-04-25T04:36:23;98662.31;;;13.68;92.13
26531;BME280;14201;43.188;24.160;2023-04-25T04:38:51;98664.88;;;13.64;89.64
26531;BME280;14201;43.188;24.160;2023-04-25T04:41:17;98666.41;;;13.48;89.15
26531;BME280;14201;43.188;24.160;2023-04-25T04:43:44;98663.97;;;13.60;87.85
26531;BME280;14201;43.188;24.160;2023-04-25T04:46:10;98667.63;;;13.71;88.67
26531;BME280;14201;43.188;24.160;2023-04-25T04:48:35;98668.66;;;13.83;89.23
26531;BME280;14201;43.188;24.160;2023-04-25T04:51:01;98666.25;;;14.01;90.26
26531;BME280;14201;43.188;24.160;2023-04-25T04:53:27;98668.34;;;14.30;86.25
26531;BME280;14201;43.188;24.160;2023-04-25T04:55:52;98664.19;;;14.49;86.39
26531;BME280;14201;43.188;24.160;2023-04-25T04:58:17;98667.91;;;14.66;85.86
26531;BME280;14201;43.188;24.160;2023-04-25T05:00:43;98670.53;;;14.68;84.61
26531;BME280;14201;43.188;24.160;2023-04-25T05:03:08;98665.38;;;14.77;85.40
26531;BME280;14201;43.188;24.160;2023-04-25T05:05:34;98670.84;;;14.99;86.20
26531;BME280;14201;43.188;24.160;2023-04-25T05:08:00;98672.66;;;15.12;85.66
26531;BME280;14201;43.188;24.160;2023-04-25T05:10:25;98657.97;;;15.32;82.47
26531;BME280;14201;43.188;24.160;2023-04-25T05:12:50;98670.34;;;15.52;82.37
26531;BME280;14201;43.188;24.160;2023-04-25T05:15:16;98671.47;;;15.85;81.28
26531;BME280;14201;43.188;24.160;2023-04-25T05:17:41;98665.47;;;16.13;79.40
26531;BME280;14201;43.188;24.160;2023-04-25T05:20:08;98665.50;;;16.23;81.89
26531;BME280;14201;43.188;24.160;2023-04-25T05:22:36;98665.59;;;16.52;81.23
26531;BME280;14201;43.188;24.160;2023-04-25T05:25:03;98666.50;;;16.74;80.87
26531;BME280;14201;43.188;24.160;2023-04-25T05:27:28;98664.81;;;16.93;78.39
26531;BME280;14201;43.188;24.160;2023-04-25T05:29:54;98671.84;;;17.05;77.91
26531;BME280;14201;43.188;24.160;2023-04-25T05:32:20;98678.84;;;17.24;75.89
26531;BME280;14201;43.188;24.160;2023-04-25T05:34:45;98671.81;;;17.42;75.29
26531;BME280;14201;43.188;24.160;2023-04-25T05:37:11;98669.13;;;17.71;75.56
26531;BME280;14201;43.188;24.160;2023-04-25T05:39:37;98669.13;;;17.86;75.28
26531;BME280;14201;43.188;24.160;2023-04-25T05:42:02;98666.41;;;18.09;75.35
26531;BME280;14201;43.188;24.160;2023-04-25T05:44:30;98671.53;;;18.43;76.49
26531;BME280;14201;43.188;24.160;2023-04-25T05:46:56;98666.94;;;18.79;73.54
26531;BME280;14201;43.188;24.160;2023-04-25T05:49:22;98672.84;;;19.15;67.98
26531;BME280;14201;43.188;24.160;2023-04-25T05:51:47;98677.13;;;19.32;67.97
26531;BME280;14201;43.188;24.160;2023-04-25T05:54:13;98674.22;;;19.59;70.55
26531;BME280;14201;43.188;24.160;2023-04-25T05:56:38;98668.66;;;19.90;69.15
26531;BME280;14201;43.188;24.160;2023-04-25T05:59:04;98674.34;;;19.45;67.84
26531;BME280;14201;43.188;24.160;2023-04-25T06:01:30;98681.34;;;19.53;64.51
26531;BME280;14201;43.188;24.160;2023-04-25T06:03:56;98688.41;;;19.47;64.83
26531;BME280;14201;43.188;24.160;2023-04-25T06:06:21;98683.34;;;19.24;66.70
26531;BME280;14201;43.188;24.160;2023-04-25T06:08:47;98685.50;;;18.67;68.43
26531;BME280;14201;43.188;24.160;2023-04-25T06:11:12;98673.16;;;18.69;69.21
26531;BME280;14201;43.188;24.160;2023-04-25T06:13:37;98686.41;;;18.55;67.46
26531;BME280;14201;43.188;24.160;2023-04-25T06:16:03;98683.84;;;18.41;68.87
26531;BME280;14201;43.188;24.160;2023-04-25T06:18:28;98683.81;;;18.49;67.37
26531;BME280;14201;43.188;24.160;2023-04-25T06:20:54;98681.94;;;18.65;67.75
26531;BME280;14201;43.188;24.160;2023-04-25T06:23:19;98685.41;;;18.76;67.29
26531;BME280;14201;43.188;24.160;2023-04-25T06:25:45;98680.13;;;18.76;67.57
26531;BME280;14201;43.188;24.160;2023-04-25T06:28:10;98683.63;;;18.87;66.66
26531;BME280;14201;43.188;24.160;2023-04-25T06:30:36;98685.41;;;18.84;67.32
26531;BME280;14201;43.188;24.160;2023-04-25T06:33:01;98687.13;;;18.89;65.77
26531;BME280;14201;43.188;24.160;2023-04-25T06:35:27;98679.19;;;18.94;65.67
26531;BME280;14201;43.188;24.160;2023-04-25T06:37:52;98678.25;;;19.00;65.18
26531;BME280;14201;43.188;24.160;2023-04-25T06:40:18;98678.44;;;18.67;66.69
26531;BME280;14201;43.188;24.160;2023-04-25T06:42:43;98689.97;;;18.48;68.34
26531;BME280;14201;43.188;24.160;2023-04-25T06:45:09;98684.59;;;18.71;69.44
26531;BME280;14201;43.188;24.160;2023-04-25T06:47:34;98688.56;;;19.31;68.25
26531;BME280;14201;43.188;24.160;2023-04-25T06:49:59;98685.56;;;19.71;65.03
26531;BME280;14201;43.188;24.160;2023-04-25T06:52:25;98684.66;;;19.75;66.22
26531;BME280;14201;43.188;24.160;2023-04-25T06:54:50;98687.00;;;20.02;61.16
26531;BME280;14201;43.188;24.160;2023-04-25T06:57:16;98682.38;;;20.23;62.65
26531;BME280;14201;43.188;24.160;2023-04-25T06:59:42;98678.97;;;20.12;60.58
26531;BME280;14201;43.188;24.160;2023-04-25T07:02:07;98681.50;;;20.24;62.09
26531;BME280;14201;43.188;24.160;2023-04-25T07:04:32;98684.72;;;20.46;62.15
26531;BME280;14201;43.188;24.160;2023-04-25T07:06:58;98684.63;;;20.52;58.40
26531;BME280;14201;43.188;24.160;2023-04-25T07:09:23;98682.16;;;20.41;54.35
26531;BME280;14201;43.188;24.160;2023-04-25T07:11:49;98683.00;;;20.43;58.18
26531;BME280;14201;43.188;24.160;2023-04-25T07:14:14;98675.97;;;21.03;58.23
26531;BME280;14201;43.188;24.160;2023-04-25T07:16:40;98678.59;;;21.06;55.99
26531;BME280;14201;43.188;24.160;2023-04-25T07:19:05;98677.25;;;20.79;51.53
26531;BME280;14201;43.188;24.160;2023-04-25T07:21:31;98680.38;;;20.40;55.46
26531;BME280;14201;43.188;24.160;2023-04-25T07:23:57;98668.94;;;20.40;55.97
26531;BME280;14201;43.188;24.160;2023-04-25T07:26:22;98674.31;;;20.34;56.37
26531;BME280;14201;43.188;24.160;2023-04-25T07:28:48;98668.28;;;20.88;55.61
26531;BME280;14201;43.188;24.160;2023-04-25T07:31:16;98673.94;;;21.19;54.06
26531;BME280;14201;43.188;24.160;2023-04-25T07:33:43;98669.97;;;20.92;53.54
26531;BME280;14201;43.188;24.160;2023-04-25T07:36:08;98670.78;;;21.51;56.60
26531;BME280;14201;43.188;24.160;2023-04-25T07:38:34;98685.81;;;22.00;55.41
26531;BME280;14201;43.188;24.160;2023-04-25T07:40:59;98674.13;;;21.62;51.88
26531;BME280;14201;43.188;24.160;2023-04-25T07:43:24;98670.34;;;21.76;52.01
26531;BME280;14201;43.188;24.160;2023-04-25T07:45:51;98675.69;;;21.21;51.86
26531;BME280;14201;43.188;24.160;2023-04-25T07:48:17;98683.06;;;21.01;54.35
26531;BME280;14201;43.188;24.160;2023-04-25T07:50:43;98679.31;;;20.54;52.36
26531;BME280;14201;43.188;24.160;2023-04-25T07:53:09;98668.66;;;20.63;51.42
26531;BME280;14201;43.188;24.160;2023-04-25T07:55:35;98677.94;;;20.25;52.51
26531;BME280;14201;43.188;24.160;2023-04-25T07:58:01;98677.16;;;20.17;54.13
26531;BME280;14201;43.188;24.160;2023-04-25T08:00:27;98677.00;;;20.29;52.17
26531;BME280;14201;43.188;24.160;2023-04-25T08:02:53;98678.50;;;20.49;53.14
26531;BME280;14201;43.188;24.160;2023-04-25T08:05:18;98683.28;;;20.87;51.86
26531;BME280;14201;43.188;24.160;2023-04-25T08:07:44;98675.97;;;20.41;52.69
26531;BME280;14201;43.188;24.160;2023-04-25T08:10:09;98679.38;;;19.78;53.09
26531;BME280;14201;43.188;24.160;2023-04-25T08:12:35;98671.38;;;19.84;53.96
26531;BME280;14201;43.188;24.160;2023-04-25T08:15:00;98675.28;;;20.25;54.23
26531;BME280;14201;43.188;24.160;2023-04-25T08:17:26;98670.03;;;20.89;57.00
26531;BME280;14201;43.188;24.160;2023-04-25T08:19:51;98686.56;;;21.03;51.60
26531;BME280;14201;43.188;24.160;2023-04-25T08:22:17;98680.16;;;20.57;50.80
26531;BME280;14201;43.188;24.160;2023-04-25T08:24:42;98683.25;;;20.90;54.33
26531;BME280;14201;43.188;24.160;2023-04-25T08:27:08;98681.06;;;21.70;52.85
26531;BME280;14201;43.188;24.160;2023-04-25T08:29:33;98682.94;;;22.10;48.67
26531;BME280;14201;43.188;24.160;2023-04-25T08:31:59;98672.25;;;22.58;53.67
26531;BME280;14201;43.188;24.160;2023-04-25T08:34:24;98678.03;;;22.77;47.42
26531;BME280;14201;43.188;24.160;2023-04-25T08:36:51;98678.34;;;22.63;48.19
26531;BME280;14201;43.188;24.160;2023-04-25T08:39:16;98674.88;;;22.59;48.36
26531;BME280;14201;43.188;24.160;2023-04-25T08:41:42;98692.72;;;22.06;47.35
26531;BME280;14201;43.188;24.160;2023-04-25T08:44:09;98688.88;;;22.26;49.35
26531;BME280;14201;43.188;24.160;2023-04-25T08:46:35;98684.72;;;22.11;47.89
26531;BME280;14201;43.188;24.160;2023-04-25T08:49:02;98675.59;;;21.28;50.50
26531;BME280;14201;43.188;24.160;2023-04-25T08:51:30;98673.91;;;21.23;49.94
26531;BME280;14201;43.188;24.160;2023-04-25T08:53:56;98673.53;;;21.48;49.43
26531;BME280;14201;43.188;24.160;2023-04-25T08:56:27;98679.94;;;21.32;50.23
26531;BME280;14201;43.188;24.160;2023-04-25T08:58:53;98680.47;;;20.34;48.19
26531;BME280;14201;43.188;24.160;2023-04-25T09:01:20;98684.22;;;20.15;51.42
26531;BME280;14201;43.188;24.160;2023-04-25T09:03:45;98685.13;;;20.14;53.14
26531;BME280;14201;43.188;24.160;2023-04-25T09:06:12;98683.13;;;20.33;54.32
26531;BME280;14201;43.188;24.160;2023-04-25T09:08:38;98675.16;;;20.36;55.11
26531;BME280;14201;43.188;24.160;2023-04-25T09:11:05;98675.38;;;20.85;53.27
26531;BME280;14201;43.188;24.160;2023-04-25T09:13:31;98670.31;;;21.24;52.64
26531;BME280;14201;43.188;24.160;2023-04-25T09:15:57;98663.22;;;21.79;54.81
26531;BME280;14201;43.188;24.160;2023-04-25T09:18:23;98658.66;;;22.31;48.46
26531;BME280;14201;43.188;24.160;2023-04-25T09:20:55;98661.03;;;22.45;47.44
26531;BME280;14201;43.188;24.160;2023-04-25T09:23:21;98662.69;;;22.51;46.31
26531;BME280;14201;43.188;24.160;2023-04-25T09:25:47;98657.28;;;22.54;47.71
26531;BME280;14201;43.188;24.160;2023-04-25T09:28:12;98660.25;;;22.80;47.11
26531;BME280;14201;43.188;24.160;2023-04-25T09:30:38;98663.84;;;22.78;45.60
26531;BME280;14201;43.188;24.160;2023-04-25T09:33:07;98663.75;;;21.98;47.30
26531;BME280;14201;43.188;24.160;2023-04-25T09:35:36;98664.88;;;22.30;48.07
26531;BME280;14201;43.188;24.160;2023-04-25T09:38:06;98670.59;;;22.10;49.57
26531;BME280;14201;43.188;24.160;2023-04-25T09:40:32;98658.59;;;21.91;49.29
26531;BME280;14201;43.188;24.160;2023-04-25T09:42:57;98663.56;;;21.61;47.52
26531;BME280;14201;43.188;24.160;2023-04-25T09:45:24;98661.19;;;21.46;49.42
26531;BME280;14201;43.188;24.160;2023-04-25T09:47:49;98670.03;;;21.93;48.78
26531;BME280;14201;43.188;24.160;2023-04-25T09:50:16;98671.19;;;22.23;47.49
26531;BME280;14201;43.188;24.160;2023-04-25T09:52:42;98668.00;;;22.51;46.70
26531;BME280;14201;43.188;24.160;2023-04-25T09:55:08;98681.78;;;22.67;48.27
26531;BME280;14201;43.188;24.160;2023-04-25T09:57:33;98669.88;;;22.85;50.68
26531;BME280;14201;43.188;24.160;2023-04-25T10:00:01;98668.69;;;22.98;50.65
26531;BME280;14201;43.188;24.160;2023-04-25T10:02:29;98667.28;;;22.81;52.59
26531;BME280;14201;43.188;24.160;2023-04-25T10:04:55;98662.50;;;22.97;54.89
26531;BME280;14201;43.188;24.160;2023-04-25T10:07:24;98665.47;;;22.84;52.72
26531;BME280;14201;43.188;24.160;2023-04-25T10:10:03;98666.22;;;22.89;51.17
26531;BME280;14201;43.188;24.160;2023-04-25T10:12:29;98661.44;;;22.67;52.04
26531;BME280;14201;43.188;24.160;2023-04-25T10:14:58;98655.28;;;22.65;50.94
26531;BME280;14201;43.188;24.160;2023-04-25T10:17:25;98649.81;;;22.71;51.64
26531;BME280;14201;43.188;24.160;2023-04-25T10:19:52;98642.69;;;22.73;51.35
26531;BME280;14201;43.188;24.160;2023-04-25T10:22:20;98649.75;;;22.74;49.13
26531;BME280;14201;43.188;24.160;2023-04-25T10:24:48;98642.63;;;22.76;50.74
26531;BME280;14201;43.188;24.160;2023-04-25T10:27:15;98636.41;;;22.77;51.62
26531;BME280;14201;43.188;24.160;2023-04-25T10:29:40;98630.19;;;22.78;50.71
26531;BME280;14201;43.188;24.160;2023-04-25T10:32:07;98632.63;;;22.88;51.57
26531;BME280;14201;43.188;24.160;2023-04-25T10:34:43;98620.25;;;22.87;51.18
26531;BME280;14201;43.188;24.160;2023-04-25T10:37:11;98631.75;;;22.87;50.94
26531;BME280;14201;43.188;24.160;2023-04-25T10:39:40;98625.69;;;22.82;51.35
26531;BME280;14201;43.188;24.160;2023-04-25T10:42:06;98627.41;;;22.83;51.25
26531;BME280;14201;43.188;24.160;2023-04-25T10:44:33;98624.75;;;22.83;50.91
26531;BME280;14201;43.188;24.160;2023-04-25T10:47:00;98625.34;;;22.96;49.20
26531;BME280;14201;43.188;24.160;2023-04-25T10:49:33;98618.47;;;22.87;48.79
26531;BME280;14201;43.188;24.160;2023-04-25T10:52:11;98614.16;;;23.21;50.78
26531;BME280;14201;43.188;24.160;2023-04-25T10:54:40;98617.22;;;23.71;51.37
26531;BME280;14201;43.188;24.160;2023-04-25T10:57:06;98603.84;;;24.07;50.76
26531;BME280;14201;43.188;24.160;2023-04-25T10:59:31;98606.91;;;24.23;49.56
26531;BME280;14201;43.188;24.160;2023-04-25T11:01:57;98602.88;;;24.39;47.59
26531;BME280;14201;43.188;24.160;2023-04-25T11:04:23;98609.50;;;24.55;47.10
26531;BME280;14201;43.188;24.160;2023-04-25T11:09:17;98605.19;;;24.51;45.87
26531;BME280;14201;43.188;24.160;2023-04-25T11:11:42;98603.53;;;24.46;46.44
26531;BME280;14201;43.188;24.160;2023-04-25T11:14:08;98597.56;;;24.39;44.00
26531;BME280;14201;43.188;24.160;2023-04-25T11:16:33;98595.63;;;24.14;46.14
26531;BME280;14201;43.188;24.160;2023-04-25T11:18:59;98599.38;;;24.07;46.75
26531;BME280;14201;43.188;24.160;2023-04-25T11:21:27;98601.34;;;24.01;47.40
26531;BME280;14201;43.188;24.160;2023-04-25T11:23:54;98601.66;;;23.90;46.09
26531;BME280;14201;43.188;24.160;2023-04-25T11:26:21;98590.19;;;23.55;47.92
26531;BME280;14201;43.188;24.160;2023-04-25T11:28:48;98605.50;;;23.45;49.60
26531;BME280;14201;43.188;24.160;2023-04-25T11:31:14;98604.09;;;23.32;51.40
26531;BME280;14201;43.188;24.160;2023-04-25T11:33:39;98606.88;;;23.27;52.19
26531;BME280;14201;43.188;24.160;2023-04-25T11:36:06;98608.31;;;23.41;54.49
26531;BME280;14201;43.188;24.160;2023-04-25T11:38:31;98607.19;;;23.49;53.48
26531;BME280;14201;43.188;24.160;2023-04-25T11:40:57;98597.25;;;23.56;51.95
26531;BME280;14201;43.188;24.160;2023-04-25T11:43:22;98605.50;;;23.45;52.16
26531;BME280;14201;43.188;24.160;2023-04-25T11:45:48;98604.19;;;23.29;53.69
26531;BME280;14201;43.188;24.160;2023-04-25T11:48:14;98595.44;;;23.25;55.08
26531;BME280;14201;43.188;24.160;2023-04-25T11:50:39;98592.41;;;23.05;51.49
26531;BME280;14201;43.188;24.160;2023-04-25T11:53:05;98584.69;;;22.94;54.59
26531;BME280;14201;43.188;24.160;2023-04-25T11:55:31;98580.50;;;22.84;56.87
26531;BME280;14201;43.188;24.160;2023-04-25T11:57:59;98577.91;;;22.82;57.98
26531;BME280;14201;43.188;24.160;2023-04-25T12:00:25;98590.66;;;22.66;55.54
26531;BME280;14201;43.188;24.160;2023-04-25T12:02:54;98591.88;;;22.53;56.03
26531;BME280;14201;43.188;24.160;2023-04-25T12:05:24;98580.97;;;22.26;56.26
26531;BME280;14201;43.188;24.160;2023-04-25T12:07:50;98599.53;;;21.82;59.62
26531;BME280;14201;43.188;24.160;2023-04-25T12:10:17;98604.88;;;21.33;61.64
26531;BME280;14201;43.188;24.160;2023-04-25T12:12:46;98615.97;;;21.03;63.48
26531;BME280;14201;43.188;24.160;2023-04-25T12:15:15;98643.22;;;20.50;65.68
26531;BME280;14201;43.188;24.160;2023-04-25T12:17:44;98686.13;;;20.02;66.99
26531;BME280;14201;43.188;24.160;2023-04-25T12:20:12;98716.25;;;18.65;65.13
26531;BME280;14201;43.188;24.160;2023-04-25T12:22:37;98701.66;;;17.35;68.37
26531;BME280;14201;43.188;24.160;2023-04-25T12:25:03;98710.41;;;17.21;70.37
26531;BME280;14201;43.188;24.160;2023-04-25T12:27:30;98717.44;;;17.21;69.36
26531;BME280;14201;43.188;24.160;2023-04-25T12:29:56;98737.63;;;17.06;70.19
26531;BME280;14201;43.188;24.160;2023-04-25T12:32:22;98727.94;;;16.99;68.12
26531;BME280;14201;43.188;24.160;2023-04-25T12:34:47;98724.31;;;16.63;69.42
26531;BME280;14201;43.188;24.160;2023-04-25T12:37:13;98722.34;;;16.05;70.42
26531;BME280;14201;43.188;24.160;2023-04-25T12:39:38;98721.16;;;15.59;73.30
26531;BME280;14201;43.188;24.160;2023-04-25T12:42:03;98728.91;;;15.45;74.97
26531;BME280;14201;43.188;24.160;2023-04-25T12:44:29;98728.72;;;15.23;77.99